createdAt,value
2022-11-30T08:48:22.559Z,19.50
2022-11-30T09:04:17.698Z,17.42
2022-11-30T09:06:47.021Z,19.38
2022-11-30T09:09:16.077Z,18.30
2022-11-30T09:11:44.921Z,16.40
2022-11-30T09:14:13.490Z,17.55
2022-11-30T09:16:42.679Z,19.73
2022-11-30T09:19:11.680Z,17.23
2022-11-30T09:21:44.248Z,20.52
2022-11-30T09:24:21.749Z,22.42
2022-11-30T09:26:51.018Z,14.95
2022-11-30T09:29:17.989Z,14.60
2022-11-30T09:31:44.889Z,13.25
2022-11-30T09:34:12.106Z,12.52
2022-11-30T09:36:39.063Z,13.75
2022-11-30T09:39:06.617Z,9.48
2022-11-30T09:41:38.849Z,7.97
2022-11-30T09:44:05.763Z,8.57
2022-11-30T09:47:00.812Z,10.77
2022-11-30T09:49:32.151Z,7.93
2022-11-30T09:52:00.586Z,13.98
2022-11-30T09:54:37.574Z,15.20
2022-11-30T09:57:31.717Z,14.73
2022-11-30T10:00:00.131Z,19.10
2022-11-30T10:02:36.155Z,14.43
2022-11-30T10:05:03.277Z,14.80
2022-11-30T10:07:37.328Z,12.43
2022-11-30T10:10:34.136Z,15.70
2022-11-30T10:13:30.816Z,12.77
2022-11-30T10:16:30.163Z,14.13
2022-11-30T10:19:48.278Z,12.77
2022-11-30T10:22:34.778Z,13.65
2022-11-30T10:25:19.468Z,15.10
2022-11-30T10:27:53.905Z,14.40
2022-11-30T10:30:25.209Z,19.60
2022-11-30T10:32:56.596Z,19.88
2022-11-30T10:35:33.660Z,16.17
2022-11-30T10:38:03.707Z,20.33
2022-11-30T10:40:38.203Z,32.88
2022-11-30T10:43:11.910Z,40.72
2022-11-30T10:45:42.041Z,22.50
2022-11-30T10:48:34.391Z,23.58
2022-11-30T10:51:01.385Z,21.17
2022-11-30T10:53:28.520Z,24.05
2022-11-30T10:56:06.091Z,33.08
2022-11-30T10:58:51.994Z,17.63
2022-11-30T11:01:45.580Z,15.95
2022-11-30T11:04:14.614Z,19.10
2022-11-30T11:06:43.365Z,19.85
2022-11-30T11:09:31.668Z,24.02
2022-11-30T11:12:02.679Z,32.90
2022-11-30T11:14:33.662Z,27.95
2022-11-30T11:17:06.522Z,27.73
2022-11-30T11:19:40.290Z,26.02
2022-11-30T11:22:21.069Z,26.27
2022-11-30T11:24:48.897Z,29.15
2022-11-30T11:27:34.101Z,22.95
2022-11-30T11:30:27.759Z,22.52
2022-11-30T11:33:02.723Z,22.55
2022-11-30T11:35:37.614Z,20.25
2022-11-30T11:38:17.918Z,25.25
2022-11-30T11:41:00.243Z,20.88
2022-11-30T11:43:31.814Z,17.55
2022-11-30T11:46:18.973Z,14.55
2022-11-30T11:48:49.018Z,21.73
2022-11-30T11:51:15.889Z,22.45
2022-11-30T11:53:53.882Z,19.13
2022-11-30T11:56:26.325Z,21.38
2022-11-30T11:59:32.263Z,19.88
2022-11-30T12:02:04.852Z,17.98
2022-11-30T12:04:57.732Z,19.65
2022-11-30T12:07:35.049Z,18.05
2022-11-30T12:10:51.336Z,16.80
2022-11-30T12:13:18.590Z,18.00
2022-11-30T12:15:57.562Z,18.87
2022-11-30T12:18:28.809Z,18.45
2022-11-30T12:21:22.623Z,16.98
2022-11-30T12:23:53.573Z,19.42
2022-11-30T12:26:39.693Z,15.95
2022-11-30T12:29:34.556Z,22.88
2022-11-30T12:32:17.484Z,20.55
2022-11-30T12:35:05.932Z,17.02
2022-11-30T12:38:07.025Z,14.32
2022-11-30T12:41:01.018Z,18.05
2022-11-30T12:46:33.780Z,14.40
2022-11-30T12:49:26.376Z,17.63
2022-11-30T12:52:02.361Z,19.20
2022-11-30T12:54:32.351Z,18.50
2022-11-30T12:57:08.551Z,18.10
2022-11-30T12:59:53.482Z,17.42
2022-11-30T13:02:32.415Z,18.23
2022-11-30T13:05:04.468Z,16.85
2022-11-30T13:07:39.949Z,22.52
2022-11-30T13:10:18.049Z,16.00
2022-11-30T13:12:47.771Z,17.42
2022-11-30T13:15:38.039Z,17.42
2022-11-30T13:18:05.972Z,17.88
2022-11-30T13:20:40.331Z,17.77
2022-11-30T13:23:18.530Z,18.17
2022-11-30T13:26:23.418Z,19.63
2022-11-30T13:29:20.174Z,18.40
2022-11-30T13:31:51.412Z,21.17
2022-11-30T13:34:24.511Z,18.67
2022-11-30T13:36:51.580Z,17.83
2022-11-30T13:39:25.480Z,16.13
2022-11-30T13:42:01.464Z,20.02
2022-11-30T13:44:37.556Z,16.40
2022-11-30T13:47:36.476Z,17.85
2022-11-30T13:53:02.922Z,16.33
2022-11-30T13:55:41.805Z,21.88
2022-11-30T13:58:09.941Z,19.10
2022-11-30T14:00:36.828Z,23.48
2022-11-30T14:03:25.438Z,21.02
2022-11-30T14:05:56.172Z,18.05
2022-11-30T14:08:23.004Z,17.83
2022-11-30T14:10:53.933Z,19.70
2022-11-30T14:13:22.628Z,17.58
2022-11-30T14:16:02.528Z,21.25
2022-11-30T14:18:40.861Z,18.35
2022-11-30T14:21:24.075Z,19.13
2022-11-30T14:23:57.023Z,20.73
2022-11-30T14:26:36.477Z,22.02
2022-11-30T14:29:07.398Z,17.50
2022-11-30T14:31:39.838Z,21.20
2022-11-30T14:34:20.036Z,19.63
2022-11-30T14:36:50.991Z,13.75
2022-11-30T14:39:27.917Z,16.63
2022-11-30T14:41:55.011Z,14.65
2022-11-30T14:44:21.804Z,18.58
2022-11-30T14:46:48.685Z,13.70
2022-11-30T14:49:23.413Z,14.88
2022-11-30T14:51:57.684Z,14.65
2022-11-30T14:55:13.505Z,13.77
2022-11-30T14:58:29.849Z,17.30
2022-11-30T15:00:57.446Z,13.30
2022-11-30T15:03:29.200Z,20.60
2022-11-30T15:05:57.669Z,13.38
2022-11-30T15:08:25.726Z,13.85
2022-11-30T15:10:52.561Z,16.60
2022-11-30T15:13:19.429Z,12.15
2022-11-30T15:15:50.844Z,12.73
2022-11-30T15:18:18.773Z,17.05
2022-11-30T15:21:00.263Z,12.57
2022-11-30T15:23:27.119Z,14.77
2022-11-30T15:25:59.791Z,11.85
2022-11-30T15:28:32.731Z,13.00
2022-11-30T15:31:01.196Z,11.50
2022-11-30T15:33:33.968Z,9.93
2022-11-30T15:38:50.429Z,12.68
2022-11-30T15:41:24.908Z,15.30
2022-11-30T15:43:55.321Z,9.60
2022-11-30T15:46:46.066Z,10.68
2022-11-30T15:49:18.854Z,11.90
2022-11-30T15:51:47.125Z,13.80
2022-11-30T15:54:13.989Z,12.07
2022-11-30T15:56:40.798Z,8.82
2022-11-30T15:59:19.512Z,9.15
2022-11-30T16:02:02.664Z,13.32
2022-11-30T16:04:48.893Z,9.50
2022-11-30T16:07:18.785Z,12.50
2022-11-30T16:09:45.856Z,9.13
2022-11-30T16:12:27.336Z,8.80
2022-11-30T16:14:54.100Z,10.13
2022-11-30T16:17:21.015Z,8.45
2022-11-30T16:19:48.161Z,6.93
2022-11-30T16:22:15.722Z,11.95
2022-11-30T16:24:42.611Z,10.52
2022-11-30T16:27:17.954Z,7.97
2022-11-30T16:29:50.478Z,6.15
2022-11-30T16:32:19.270Z,6.40
2022-11-30T16:34:47.049Z,8.43
2022-11-30T16:37:14.752Z,9.77
2022-11-30T16:39:41.559Z,9.70
2022-11-30T16:42:11.948Z,8.32
2022-11-30T16:44:38.788Z,6.68
2022-11-30T16:47:05.573Z,9.98
2022-11-30T16:49:32.385Z,8.50
2022-11-30T16:51:59.192Z,9.50
2022-11-30T16:54:25.967Z,11.25
2022-11-30T16:56:52.766Z,8.98
2022-11-30T16:59:19.567Z,10.68
2022-11-30T17:01:47.306Z,8.73
2022-11-30T17:04:20.521Z,11.82
2022-11-30T17:06:50.467Z,11.05
2022-11-30T17:09:17.880Z,11.00
2022-11-30T17:11:45.657Z,12.68
2022-11-30T17:14:13.129Z,12.75
2022-11-30T17:17:08.254Z,13.40
2022-11-30T17:19:35.151Z,14.98
2022-11-30T17:22:03.036Z,14.73
2022-11-30T17:24:29.841Z,12.75
2022-11-30T17:26:57.309Z,16.75
2022-11-30T17:29:24.109Z,17.70
2022-11-30T17:31:50.928Z,14.57
2022-11-30T17:34:17.745Z,20.17
2022-11-30T17:36:45.139Z,17.92
2022-11-30T17:39:12.030Z,20.75
2022-11-30T17:41:38.934Z,19.42
2022-11-30T17:44:05.804Z,24.17
2022-11-30T17:46:32.695Z,20.70
2022-11-30T17:48:59.730Z,24.20
2022-11-30T17:51:26.623Z,22.95
2022-11-30T17:53:53.579Z,33.20
2022-11-30T17:56:20.585Z,24.02
2022-11-30T17:58:49.297Z,22.27
2022-11-30T18:01:21.751Z,24.65
2022-11-30T18:08:13.051Z,21.92
2022-11-30T18:10:41.039Z,29.00
2022-11-30T18:13:07.985Z,24.63
2022-11-30T18:15:35.103Z,26.60
2022-11-30T18:18:02.711Z,28.45
2022-11-30T18:20:29.481Z,29.15
2022-11-30T18:22:56.264Z,27.38
2022-11-30T18:25:23.161Z,24.95
2022-11-30T18:27:52.959Z,27.98
2022-11-30T18:30:19.868Z,24.60
2022-11-30T18:32:46.688Z,25.92
2022-11-30T18:35:13.474Z,23.02
2022-11-30T18:37:40.247Z,39.03
2022-11-30T18:40:07.681Z,33.53
2022-11-30T18:42:34.478Z,25.17
2022-11-30T18:45:01.243Z,25.63
2022-11-30T18:47:28.051Z,21.27
2022-11-30T18:49:54.813Z,23.75
2022-11-30T18:52:21.634Z,19.33
2022-11-30T18:54:48.634Z,21.58
2022-11-30T18:57:15.533Z,26.90
2022-11-30T18:59:42.398Z,26.80
2022-11-30T19:02:09.409Z,32.05
2022-11-30T19:04:36.273Z,30.38
2022-11-30T19:07:03.217Z,34.25
2022-11-30T19:09:30.675Z,31.35
2022-11-30T19:11:58.109Z,32.78
2022-11-30T19:14:24.897Z,28.13
2022-11-30T19:16:51.734Z,32.40
2022-11-30T19:19:18.555Z,32.00
2022-11-30T19:21:47.592Z,30.42
2022-11-30T19:24:15.406Z,30.75
2022-11-30T19:26:42.191Z,33.42
2022-11-30T19:29:10.901Z,39.95
2022-11-30T19:31:40.585Z,39.63
2022-11-30T19:34:12.580Z,37.58
2022-11-30T19:36:40.036Z,33.10
2022-11-30T19:39:06.849Z,39.05
2022-11-30T19:41:33.768Z,42.10
2022-11-30T19:44:03.978Z,40.55
2022-11-30T19:46:32.940Z,40.58
2022-11-30T19:49:01.355Z,34.75
2022-11-30T19:51:28.694Z,30.33
2022-11-30T19:53:57.513Z,33.40
2022-11-30T19:56:24.662Z,34.50
2022-11-30T19:58:51.909Z,31.02
2022-11-30T20:01:22.980Z,31.13
2022-11-30T20:03:50.736Z,30.92
2022-11-30T20:06:18.010Z,31.60
2022-11-30T20:08:44.975Z,32.33
2022-11-30T20:11:12.965Z,31.40
2022-11-30T20:13:39.838Z,29.33
2022-11-30T20:16:16.245Z,39.10
2022-11-30T20:18:46.224Z,27.05
2022-11-30T20:21:18.252Z,26.63
2022-11-30T20:23:46.994Z,30.65
2022-11-30T20:26:17.580Z,44.15
2022-11-30T20:28:45.060Z,31.70
2022-11-30T20:31:12.884Z,29.92
2022-11-30T20:33:39.731Z,26.17
2022-11-30T20:36:07.930Z,27.25
2022-11-30T20:38:34.831Z,27.45
2022-11-30T20:41:01.931Z,28.27
2022-11-30T20:43:28.788Z,26.02
2022-11-30T20:45:55.744Z,27.10
2022-11-30T20:48:22.661Z,28.20
2022-11-30T20:51:14.043Z,69.38
2022-11-30T20:53:36.384Z,52.63
2022-11-30T20:56:03.326Z,41.85
2022-11-30T20:58:30.844Z,67.85
2022-11-30T21:00:58.716Z,38.13
2022-11-30T21:03:25.660Z,29.45
2022-11-30T21:05:52.481Z,27.92
2022-11-30T21:08:19.280Z,34.25
2022-11-30T21:10:46.114Z,33.28
2022-11-30T21:13:13.492Z,29.77
2022-11-30T21:15:40.705Z,25.55
2022-11-30T21:18:07.872Z,28.45
2022-11-30T21:20:34.736Z,27.75
2022-11-30T21:23:01.542Z,24.70
2022-11-30T21:25:28.303Z,25.63
2022-11-30T21:27:55.058Z,27.55
2022-11-30T21:30:21.793Z,25.02
2022-11-30T21:32:48.626Z,19.15
2022-11-30T21:35:15.414Z,23.50
2022-11-30T21:37:42.224Z,20.15
2022-11-30T21:40:09.541Z,17.98
2022-11-30T21:42:36.365Z,16.80
2022-11-30T21:45:05.605Z,16.08
2022-11-30T21:47:32.583Z,17.33
2022-11-30T21:49:59.704Z,18.55
2022-11-30T21:52:26.717Z,20.92
2022-11-30T21:54:53.896Z,21.08
2022-11-30T21:57:23.804Z,16.90
2022-11-30T21:59:50.781Z,19.40
2022-11-30T22:02:17.736Z,15.70
2022-11-30T22:04:44.613Z,16.10
2022-11-30T22:07:12.855Z,18.90
2022-11-30T22:09:39.708Z,18.10
2022-11-30T22:12:06.621Z,16.25
2022-11-30T22:14:36.127Z,19.02
2022-11-30T22:17:02.924Z,15.30
2022-11-30T22:19:29.750Z,15.63
2022-11-30T22:21:56.613Z,18.77
2022-11-30T22:24:23.403Z,16.02
2022-11-30T22:26:50.234Z,14.10
2022-11-30T22:29:19.098Z,19.15
2022-11-30T22:31:47.703Z,17.67
2022-11-30T22:34:14.834Z,17.77
2022-11-30T22:36:42.530Z,22.02
2022-11-30T22:39:12.282Z,18.13
2022-11-30T22:41:39.995Z,18.05
2022-11-30T22:44:06.798Z,57.28
2022-11-30T22:46:34.656Z,41.08
2022-11-30T22:49:02.337Z,51.85
2022-11-30T22:51:30.045Z,35.55
2022-11-30T22:53:57.403Z,32.45
2022-11-30T22:56:26.162Z,33.58
2022-11-30T22:58:54.311Z,29.63
2022-11-30T23:01:23.821Z,24.83
2022-11-30T23:03:51.372Z,28.60
2022-11-30T23:06:19.176Z,22.58
2022-11-30T23:08:46.297Z,25.10
2022-11-30T23:11:15.078Z,22.02
2022-11-30T23:13:42.117Z,20.45
2022-11-30T23:16:09.597Z,21.05
2022-11-30T23:19:00.932Z,18.42
2022-11-30T23:21:33.644Z,19.98
2022-11-30T23:24:05.061Z,18.02
2022-11-30T23:26:33.556Z,22.00
2022-11-30T23:29:05.599Z,17.92
2022-11-30T23:31:35.583Z,18.52
2022-11-30T23:34:07.386Z,18.60
2022-11-30T23:36:34.623Z,20.92
2022-11-30T23:39:04.249Z,24.30
2022-11-30T23:41:31.209Z,22.08
2022-11-30T23:43:58.093Z,23.45
2022-11-30T23:46:25.373Z,20.67
2022-11-30T23:48:52.423Z,20.63
2022-11-30T23:51:19.281Z,25.10
2022-11-30T23:53:46.131Z,25.35
2022-11-30T23:56:14.240Z,23.95
2022-11-30T23:58:41.108Z,20.00
